METAR Data
IDs: Format: Raw Decoded Include TAF

Data at: 1902 UTC 16 Oct 2021

KRYV 161855Z AUTO 30014G23KT 10SM SCT050 14/01 A2998 RMK AO2 T01430010